Terminal Aerodrome Forecast
Issued by NWS

Home | Current Version | Previous Version | Text Only | Print | Product List | Glossary On
Versions: 1 2 3 4 5 6 7 8 9 10 11 12 13 14 15 16 17 18 19 20 21 22 23 24 25 26 27
000
FTUS43 KILX 211143
TAFCMI
TAF
KCMI 211143Z 2112/2212 VRB04KT P6SM VCSH BKN045
     FM211300 VRB05KT 4SM -RA BR OVC040
     FM211400 11005KT 3SM -RA BR SCT020 OVC035
     FM211700 10005KT 4SM BR VCSH OVC035
     FM212100 11005KT P6SM SCT025 OVC250
     FM220900 VRB03KT 1/4SM FG FEW003 OVC050=

USA.gov is the U.S. government's official web portal to all federal, state and local government web resources and services.